createdAt,value
2023-03-17T00:04:21.320Z,2.13
2023-03-17T00:24:21.375Z,2.13
2023-03-17T00:44:21.479Z,2.11
2023-03-17T01:24:21.579Z,2.07
2023-03-17T01:44:21.583Z,2
2023-03-17T02:04:21.747Z,2.48
2023-03-17T02:44:21.665Z,3.11
2023-03-17T03:04:22.032Z,2.98
2023-03-17T03:24:21.787Z,2.83
2023-03-17T03:44:21.923Z,2.89
2023-03-17T04:04:22.039Z,2.9
2023-03-17T04:24:21.957Z,2.52
2023-03-17T04:44:21.944Z,2.22
2023-03-17T05:04:31.022Z,2.02
2023-03-17T05:24:22.094Z,1.87
2023-03-17T05:44:22.194Z,2.27
2023-03-17T06:04:22.211Z,2.59
2023-03-17T06:24:22.265Z,3.01
2023-03-17T06:44:22.285Z,3.54
2023-03-17T07:04:22.390Z,3.74
2023-03-17T07:24:22.403Z,4.35
2023-03-17T07:44:22.593Z,5.25
2023-03-17T08:04:22.439Z,6.03
2023-03-17T08:24:22.513Z,6.59
2023-03-17T08:44:22.551Z,7.52
2023-03-17T09:04:22.687Z,8.33
2023-03-17T09:24:22.714Z,8.99
2023-03-17T09:44:22.722Z,9.77
2023-03-17T10:04:22.695Z,10.55
2023-03-17T10:24:23.310Z,11.4
2023-03-17T10:44:22.779Z,12.58
2023-03-17T11:04:22.826Z,16.36
2023-03-17T11:24:22.810Z,16.14
2023-03-17T11:44:22.915Z,16.4
2023-03-17T12:04:22.903Z,16.92
2023-03-17T12:24:22.945Z,16.77
2023-03-17T12:44:22.983Z,18.91
2023-03-17T13:04:25.173Z,21.26
2023-03-17T13:24:23.282Z,20.81
2023-03-17T13:44:22.994Z,19.93
2023-03-17T14:04:23.169Z,18.16
2023-03-17T14:24:23.079Z,17.03
2023-03-17T14:44:23.280Z,16.8
2023-03-17T15:04:23.149Z,16.41
2023-03-17T15:24:23.332Z,16.38
2023-03-17T15:44:23.293Z,15.8
2023-03-17T16:04:23.228Z,15.24
2023-03-17T16:24:23.273Z,14.91
2023-03-17T16:44:23.446Z,14.36
2023-03-17T17:04:23.389Z,13.78
2023-03-17T17:24:23.345Z,13.24
2023-03-17T17:44:23.446Z,12.37
2023-03-17T18:04:23.442Z,11.75
2023-03-17T18:24:23.548Z,11.23
2023-03-17T18:44:23.458Z,10.8
2023-03-17T19:04:23.493Z,10.51
2023-03-17T19:24:23.496Z,10.27
2023-03-17T19:44:23.700Z,9.95
2023-03-17T20:04:23.748Z,9.85
2023-03-17T20:24:23.625Z,9.97
2023-03-17T20:44:23.754Z,9.89
2023-03-17T21:04:23.748Z,9.4
2023-03-17T21:24:23.785Z,8.54
2023-03-17T21:44:23.876Z,7.95
2023-03-17T22:04:23.896Z,7.31
2023-03-17T22:24:23.904Z,6.82
2023-03-17T22:44:23.904Z,6.57
2023-03-17T23:04:24.054Z,6.36
2023-03-17T23:24:24.103Z,6.32
2023-03-17T23:44:24.025Z,6.02
